createdAt,value
2017-11-13T00:00:09.898Z,0.00
2017-11-13T00:01:09.922Z,0.00
2017-11-13T00:02:09.954Z,0.00
2017-11-13T00:03:09.988Z,0.00
2017-11-13T00:04:10.022Z,0.00
2017-11-13T00:05:10.062Z,0.00
2017-11-13T00:06:10.085Z,0.00
2017-11-13T00:07:10.118Z,0.00
2017-11-13T00:08:10.163Z,0.00
2017-11-13T00:09:10.182Z,0.00
2017-11-13T00:10:10.218Z,0.00
2017-11-13T00:11:10.249Z,0.00
2017-11-13T00:12:10.282Z,0.00
2017-11-13T00:13:10.314Z,0.00
2017-11-13T00:14:10.343Z,0.00
2017-11-13T00:15:10.388Z,0.00
2017-11-13T00:16:10.411Z,0.00
2017-11-13T00:17:10.440Z,0.00
2017-11-13T00:18:10.474Z,0.00
2017-11-13T00:19:10.508Z,0.00
2017-11-13T00:20:10.541Z,0.00
2017-11-13T00:21:10.578Z,0.00
2017-11-13T00:22:10.603Z,0.00
2017-11-13T00:23:10.640Z,0.00
2017-11-13T00:24:10.672Z,0.00
2017-11-13T00:25:10.705Z,0.00
2017-11-13T00:26:10.736Z,0.00
2017-11-13T00:27:10.769Z,0.00
2017-11-13T00:28:10.803Z,0.00
2017-11-13T00:29:10.841Z,0.00
2017-11-13T00:30:10.869Z,0.00
2017-11-13T00:31:10.900Z,0.00
2017-11-13T00:32:10.932Z,0.00
2017-11-13T00:33:10.965Z,0.00
2017-11-13T00:34:11.013Z,0.00
2017-11-13T00:35:11.030Z,0.00
2017-11-13T00:36:11.068Z,0.00
2017-11-13T00:37:11.098Z,0.00
2017-11-13T00:38:11.131Z,0.00
2017-11-13T00:39:11.161Z,0.00
2017-11-13T00:40:11.195Z,0.00
2017-11-13T00:41:11.226Z,0.00
2017-11-13T00:42:11.261Z,0.00
2017-11-13T00:43:11.290Z,0.00
2017-11-13T00:44:11.325Z,0.00
2017-11-13T00:45:11.361Z,0.00
2017-11-13T00:46:11.393Z,0.00
2017-11-13T00:47:11.421Z,0.00
2017-11-13T00:48:11.456Z,0.00
2017-11-13T00:49:11.486Z,0.00
2017-11-13T00:50:11.519Z,0.00
2017-11-13T00:51:11.551Z,0.00
2017-11-13T00:52:11.590Z,0.00
2017-11-13T00:53:11.616Z,0.00
2017-11-13T00:54:11.650Z,0.00
2017-11-13T00:55:11.694Z,0.00
2017-11-13T00:56:11.722Z,0.00
2017-11-13T00:57:11.752Z,0.00
2017-11-13T00:58:11.781Z,0.00
2017-11-13T00:59:11.815Z,0.00
2017-11-13T01:00:11.846Z,0.00
2017-11-13T01:01:11.893Z,0.00
2017-11-13T01:02:11.917Z,0.00
2017-11-13T01:03:11.945Z,0.00
2017-11-13T01:04:12.082Z,0.00
2017-11-13T01:05:12.011Z,0.00
2017-11-13T01:06:12.094Z,0.00
2017-11-13T01:07:12.079Z,0.00
2017-11-13T01:08:12.119Z,0.00
2017-11-13T01:09:12.143Z,0.00
2017-11-13T01:10:12.181Z,0.00
2017-11-13T01:11:12.210Z,0.00
2017-11-13T01:12:12.242Z,0.00
2017-11-13T01:13:12.282Z,0.00
2017-11-13T01:14:12.307Z,0.00
2017-11-13T01:15:12.341Z,0.00
2017-11-13T01:16:12.373Z,0.00
2017-11-13T01:17:12.405Z,0.00
2017-11-13T01:18:12.437Z,0.00
2017-11-13T01:19:12.472Z,0.00
2017-11-13T01:20:12.504Z,0.00
2017-11-13T01:21:12.559Z,0.00
2017-11-13T01:22:12.575Z,0.00
2017-11-13T01:23:12.606Z,0.00
2017-11-13T01:24:12.644Z,0.00
2017-11-13T01:25:12.674Z,0.00
2017-11-13T01:26:12.704Z,0.00
2017-11-13T01:27:12.736Z,0.00
2017-11-13T01:28:12.772Z,0.00
2017-11-13T01:29:12.802Z,0.00
2017-11-13T01:30:12.833Z,0.00
2017-11-13T01:31:12.868Z,0.00
2017-11-13T01:32:12.903Z,0.00
2017-11-13T01:33:12.933Z,0.00
2017-11-13T01:34:12.968Z,0.00
2017-11-13T01:35:12.998Z,0.00
2017-11-13T01:36:13.032Z,0.00
2017-11-13T01:37:13.067Z,0.00
2017-11-13T01:38:13.098Z,0.00
2017-11-13T01:39:13.147Z,0.00
2017-11-13T01:40:13.164Z,0.00
2017-11-13T01:41:13.197Z,0.00
2017-11-13T01:42:13.236Z,0.00
2017-11-13T01:43:13.267Z,0.00
2017-11-13T01:44:13.299Z,0.00
2017-11-13T01:45:13.328Z,0.00
2017-11-13T01:46:13.365Z,0.00
2017-11-13T01:47:13.398Z,0.00
2017-11-13T01:48:13.429Z,0.00
2017-11-13T01:49:13.465Z,0.00
2017-11-13T01:50:13.495Z,0.00
2017-11-13T01:51:13.530Z,0.00
2017-11-13T01:52:13.565Z,0.00
2017-11-13T01:53:13.669Z,0.00
2017-11-13T01:54:13.634Z,0.00
2017-11-13T01:55:13.665Z,0.00
2017-11-13T01:56:13.693Z,0.00
2017-11-13T01:57:13.737Z,0.00
2017-11-13T01:58:13.760Z,0.00
2017-11-13T01:59:13.792Z,0.00
2017-11-13T02:00:13.827Z,0.00
2017-11-13T02:01:13.857Z,0.00
2017-11-13T02:02:13.941Z,0.00
2017-11-13T02:03:13.925Z,0.00
2017-11-13T02:04:14.014Z,0.00
2017-11-13T02:05:13.992Z,0.00
2017-11-13T02:06:14.032Z,0.00
2017-11-13T02:07:14.059Z,0.00
2017-11-13T02:08:14.090Z,0.00
2017-11-13T02:09:14.126Z,0.00
2017-11-13T02:10:14.157Z,0.00
2017-11-13T02:11:14.200Z,0.00
2017-11-13T02:12:14.232Z,0.00
2017-11-13T02:13:14.307Z,0.00
2017-11-13T02:14:14.289Z,0.00
2017-11-13T02:15:14.320Z,0.00
2017-11-13T02:16:14.358Z,0.00
2017-11-13T02:17:14.389Z,0.00
2017-11-13T02:18:14.421Z,0.00
2017-11-13T02:19:14.455Z,0.00
2017-11-13T02:20:14.487Z,0.00
2017-11-13T02:21:14.522Z,0.00
2017-11-13T02:22:14.556Z,0.00
2017-11-13T02:23:14.587Z,0.00
2017-11-13T02:24:14.619Z,0.00
2017-11-13T02:25:14.657Z,0.00
2017-11-13T02:26:14.691Z,0.00
2017-11-13T02:27:14.719Z,0.00
2017-11-13T02:28:14.752Z,0.00
2017-11-13T02:29:14.786Z,0.00
2017-11-13T02:30:14.821Z,0.00
2017-11-13T02:31:14.853Z,0.00
2017-11-13T02:32:14.895Z,0.00
2017-11-13T02:33:14.917Z,0.00
2017-11-13T02:34:14.952Z,0.00
2017-11-13T02:35:14.988Z,0.00
2017-11-13T02:36:15.021Z,0.00
2017-11-13T02:37:15.050Z,0.00
2017-11-13T02:38:15.082Z,0.00
2017-11-13T02:39:15.119Z,0.00
2017-11-13T02:40:15.152Z,0.00
2017-11-13T02:41:15.184Z,0.00
2017-11-13T02:42:15.218Z,0.00
2017-11-13T02:43:15.251Z,0.00
2017-11-13T02:44:15.286Z,0.00
2017-11-13T02:45:15.318Z,0.00
2017-11-13T02:46:15.358Z,0.00
2017-11-13T02:47:15.388Z,0.00
2017-11-13T02:48:15.417Z,0.00
2017-11-13T02:49:15.548Z,0.00
2017-11-13T02:50:15.490Z,0.00
2017-11-13T02:51:15.518Z,0.00
2017-11-13T02:52:15.549Z,0.00
2017-11-13T02:53:15.593Z,0.00
2017-11-13T02:54:15.615Z,0.00
2017-11-13T02:55:15.649Z,0.00
2017-11-13T02:56:15.685Z,0.00
2017-11-13T02:57:15.719Z,0.00
2017-11-13T02:58:15.881Z,0.00
2017-11-13T02:59:15.781Z,0.00
2017-11-13T03:00:15.822Z,0.00
2017-11-13T03:01:15.849Z,0.00
2017-11-13T03:02:15.884Z,0.00
2017-11-13T03:03:15.915Z,0.00
2017-11-13T03:04:15.949Z,0.00
2017-11-13T03:05:15.979Z,0.00
2017-11-13T03:06:16.014Z,0.00
2017-11-13T03:07:16.049Z,0.00
2017-11-13T03:08:16.080Z,0.00
2017-11-13T03:09:16.163Z,0.00
2017-11-13T03:10:16.149Z,0.00
2017-11-13T03:11:16.179Z,0.00
2017-11-13T03:12:16.219Z,0.00
2017-11-13T03:13:16.244Z,0.00
2017-11-13T03:14:16.279Z,0.00
2017-11-13T03:15:16.311Z,0.00
2017-11-13T03:16:16.344Z,0.00
2017-11-13T03:17:16.380Z,0.00
2017-11-13T03:18:16.409Z,0.00
2017-11-13T03:19:16.448Z,0.00
2017-11-13T03:20:16.480Z,0.00
2017-11-13T03:21:16.510Z,0.00
2017-11-13T03:22:16.542Z,0.00
2017-11-13T03:23:16.574Z,0.00
2017-11-13T03:24:16.609Z,0.00
2017-11-13T03:25:16.644Z,0.00
2017-11-13T03:26:16.680Z,0.00
2017-11-13T03:27:16.711Z,0.00
2017-11-13T03:28:16.743Z,0.00
2017-11-13T03:29:16.773Z,0.00
2017-11-13T03:30:16.811Z,0.00
2017-11-13T03:31:16.844Z,0.00
2017-11-13T03:32:16.886Z,0.00
2017-11-13T03:33:16.906Z,0.00
2017-11-13T03:34:16.940Z,0.00
2017-11-13T03:35:16.974Z,0.00
2017-11-13T03:36:17.006Z,0.00
2017-11-13T03:37:17.042Z,0.00
2017-11-13T03:38:17.075Z,0.00
2017-11-13T03:39:17.115Z,0.00
2017-11-13T03:40:17.154Z,0.00
2017-11-13T03:41:17.171Z,0.00
2017-11-13T03:42:17.205Z,0.00
2017-11-13T03:43:17.241Z,0.00
2017-11-13T03:44:17.272Z,0.00
2017-11-13T03:45:17.302Z,0.00
2017-11-13T03:46:17.336Z,0.00
2017-11-13T03:47:17.373Z,0.00
2017-11-13T03:48:17.405Z,0.00
2017-11-13T03:49:17.441Z,0.00
2017-11-13T03:50:17.465Z,0.00
2017-11-13T03:51:17.501Z,0.00
2017-11-13T03:52:17.536Z,0.00
2017-11-13T03:53:17.570Z,0.00
2017-11-13T03:54:17.602Z,0.00
2017-11-13T03:55:17.634Z,0.00
2017-11-13T03:56:17.694Z,0.00
2017-11-13T03:57:17.702Z,0.00
2017-11-13T03:58:17.742Z,0.00
2017-11-13T03:59:17.766Z,0.00
2017-11-13T04:00:17.809Z,0.00
2017-11-13T04:01:17.835Z,0.00
2017-11-13T04:02:17.871Z,0.00
2017-11-13T04:03:17.898Z,0.00
2017-11-13T04:04:17.932Z,0.00
2017-11-13T04:05:18.074Z,0.00
2017-11-13T04:06:18.001Z,0.00
2017-11-13T04:07:18.032Z,0.00
2017-11-13T04:08:18.069Z,0.00
2017-11-13T04:09:18.095Z,0.00
2017-11-13T04:10:18.133Z,0.00
2017-11-13T04:11:18.163Z,0.00
2017-11-13T04:12:18.202Z,0.00
2017-11-13T04:13:18.229Z,0.00
2017-11-13T04:14:18.318Z,0.00
2017-11-13T04:15:18.295Z,0.00
2017-11-13T04:16:18.382Z,0.00
2017-11-13T04:17:18.363Z,0.00
2017-11-13T04:18:18.396Z,0.00
2017-11-13T04:19:18.430Z,0.00
2017-11-13T04:20:18.462Z,0.00
2017-11-13T04:21:18.493Z,0.00
2017-11-13T04:22:18.529Z,0.00
2017-11-13T04:23:18.558Z,0.00
2017-11-13T04:24:18.594Z,0.00
2017-11-13T04:25:18.624Z,0.00
2017-11-13T04:26:18.659Z,0.00
2017-11-13T04:27:18.694Z,0.00
2017-11-13T04:28:18.724Z,0.00
2017-11-13T04:29:18.757Z,0.00
2017-11-13T04:30:18.791Z,0.00
2017-11-13T04:31:18.825Z,0.00
2017-11-13T04:32:18.859Z,0.00
2017-11-13T04:33:18.889Z,0.00
2017-11-13T04:34:18.937Z,0.00
2017-11-13T04:35:18.953Z,0.00
2017-11-13T04:36:18.987Z,0.00
2017-11-13T04:37:19.024Z,0.00
2017-11-13T04:38:19.054Z,0.00
2017-11-13T04:39:19.087Z,0.00
2017-11-13T04:40:19.124Z,0.00
2017-11-13T04:41:19.154Z,0.00
2017-11-13T04:42:19.186Z,0.00
2017-11-13T04:43:19.220Z,0.00
2017-11-13T04:44:19.257Z,0.00
2017-11-13T04:45:19.285Z,0.00
2017-11-13T04:46:19.317Z,0.00
2017-11-13T04:47:19.352Z,0.00
2017-11-13T04:48:19.386Z,0.00
2017-11-13T04:49:19.418Z,0.00
2017-11-13T04:50:19.456Z,0.00
2017-11-13T04:51:19.490Z,0.00
2017-11-13T04:52:19.578Z,0.00
2017-11-13T04:53:19.556Z,0.00
2017-11-13T04:54:19.585Z,0.00
2017-11-13T04:55:19.617Z,0.00
2017-11-13T04:56:19.652Z,0.00
2017-11-13T04:57:19.686Z,0.00
2017-11-13T04:58:19.716Z,0.00
2017-11-13T04:59:19.749Z,0.00
2017-11-13T05:00:19.787Z,0.00
2017-11-13T05:01:19.825Z,0.00
2017-11-13T05:02:19.848Z,0.00
2017-11-13T05:03:19.937Z,0.00
2017-11-13T05:04:19.914Z,0.00
2017-11-13T05:05:19.948Z,0.00
2017-11-13T05:06:19.989Z,0.00
2017-11-13T05:07:20.016Z,0.00
2017-11-13T05:08:20.049Z,0.00
2017-11-13T05:09:20.079Z,0.00
2017-11-13T05:10:20.115Z,0.00
2017-11-13T05:11:20.146Z,0.00
2017-11-13T05:12:20.225Z,0.00
2017-11-13T05:13:20.212Z,0.00
2017-11-13T05:14:20.248Z,0.00
2017-11-13T05:15:20.279Z,0.00
2017-11-13T05:16:20.310Z,0.00
2017-11-13T05:17:20.345Z,0.00
2017-11-13T05:18:20.380Z,0.00
2017-11-13T05:19:20.411Z,0.00
2017-11-13T05:20:20.447Z,0.00
2017-11-13T05:21:20.477Z,0.00
2017-11-13T05:22:20.510Z,0.00
2017-11-13T05:23:20.550Z,0.00
2017-11-13T05:24:20.579Z,0.00
2017-11-13T05:25:20.612Z,0.00
2017-11-13T05:26:20.647Z,0.00
2017-11-13T05:27:20.677Z,0.00
2017-11-13T05:28:20.711Z,0.00
2017-11-13T05:29:20.743Z,0.00
2017-11-13T05:30:20.779Z,0.00
2017-11-13T05:31:20.810Z,0.00
2017-11-13T05:32:20.847Z,0.00
2017-11-13T05:33:20.878Z,0.00
2017-11-13T05:34:20.912Z,0.00
2017-11-13T05:35:20.952Z,0.00
2017-11-13T05:36:20.985Z,0.00
2017-11-13T05:37:21.010Z,0.00
2017-11-13T05:38:21.040Z,0.00
2017-11-13T05:39:21.082Z,0.00
2017-11-13T05:40:21.107Z,0.00
2017-11-13T05:41:21.143Z,0.00
2017-11-13T05:42:21.177Z,0.00
2017-11-13T05:43:21.230Z,0.00
2017-11-13T05:44:21.241Z,0.00
2017-11-13T05:45:21.274Z,0.00
2017-11-13T05:46:21.309Z,0.00
2017-11-13T05:47:21.341Z,0.00
2017-11-13T05:48:21.399Z,0.00
2017-11-13T05:49:21.408Z,0.00
2017-11-13T05:50:21.469Z,0.00
2017-11-13T05:51:21.472Z,0.00
2017-11-13T05:53:21.539Z,0.00
2017-11-13T05:54:21.575Z,0.00
2017-11-13T05:55:21.608Z,0.00
2017-11-13T05:56:21.639Z,0.00
2017-11-13T05:57:21.673Z,0.00
2017-11-13T05:58:21.705Z,0.00
2017-11-13T05:59:21.835Z,0.00
2017-11-13T06:00:21.772Z,0.00
2017-11-13T06:01:21.808Z,0.00
2017-11-13T06:02:21.840Z,0.00
2017-11-13T06:03:21.872Z,0.00
2017-11-13T06:04:21.911Z,0.00
2017-11-13T06:05:21.941Z,0.00
2017-11-13T06:06:21.974Z,0.00
2017-11-13T06:07:22.004Z,0.00
2017-11-13T06:08:22.121Z,0.00
2017-11-13T06:09:22.073Z,0.00
2017-11-13T06:10:22.155Z,0.00
2017-11-13T06:11:22.139Z,0.00
2017-11-13T06:12:22.172Z,0.00
2017-11-13T06:13:22.204Z,0.00
2017-11-13T06:14:22.239Z,0.00
2017-11-13T06:15:22.270Z,0.00
2017-11-13T06:16:22.306Z,0.00
2017-11-13T06:17:22.341Z,0.00
2017-11-13T06:18:22.370Z,0.00
2017-11-13T06:19:22.413Z,0.00
2017-11-13T06:20:22.441Z,0.00
2017-11-13T06:21:22.471Z,0.00
2017-11-13T06:22:22.502Z,0.00
2017-11-13T06:23:22.536Z,0.00
2017-11-13T06:24:22.571Z,0.00
2017-11-13T06:25:22.604Z,0.00
2017-11-13T06:26:22.637Z,0.00
2017-11-13T06:27:22.670Z,0.00
2017-11-13T06:28:22.702Z,0.00
2017-11-13T06:29:22.737Z,0.00
2017-11-13T06:30:22.771Z,0.00
2017-11-13T06:31:22.803Z,0.00
2017-11-13T06:32:22.836Z,0.00
2017-11-13T06:33:22.872Z,0.00
2017-11-13T06:34:22.901Z,0.00
2017-11-13T06:35:22.937Z,0.00
2017-11-13T06:36:22.971Z,0.00
2017-11-13T06:37:23.003Z,5.63
2017-11-13T06:38:23.034Z,5.63
2017-11-13T06:39:23.073Z,0.00
2017-11-13T06:40:23.103Z,0.00
2017-11-13T06:41:23.135Z,0.00
2017-11-13T06:42:23.167Z,0.00
2017-11-13T06:43:23.202Z,0.00
2017-11-13T06:44:23.243Z,0.00
2017-11-13T06:45:23.276Z,5.63
2017-11-13T06:46:23.303Z,5.63
2017-11-13T06:47:23.338Z,5.63
2017-11-13T06:48:23.369Z,5.63
2017-11-13T06:49:23.402Z,5.63
2017-11-13T06:50:23.433Z,5.63
2017-11-13T06:51:23.469Z,5.63
2017-11-13T06:52:23.502Z,11.25
2017-11-13T06:53:23.532Z,11.25
2017-11-13T06:54:23.565Z,5.63
2017-11-13T06:55:23.690Z,5.63
2017-11-13T06:56:23.631Z,11.25
2017-11-13T06:57:23.689Z,11.25
2017-11-13T06:58:23.702Z,11.25
2017-11-13T06:59:23.732Z,11.25
2017-11-13T07:00:23.765Z,16.88
2017-11-13T07:01:23.800Z,16.88
2017-11-13T07:02:23.849Z,22.50
2017-11-13T07:03:23.865Z,22.50
2017-11-13T07:04:23.899Z,22.50
2017-11-13T07:05:23.932Z,28.13
2017-11-13T07:06:23.996Z,22.50
2017-11-13T07:07:23.998Z,28.13
2017-11-13T07:08:24.038Z,28.13
2017-11-13T07:09:24.063Z,33.75
2017-11-13T07:10:24.108Z,39.38
2017-11-13T07:11:24.136Z,39.38
2017-11-13T07:12:24.166Z,45.00
2017-11-13T07:13:24.197Z,50.63
2017-11-13T07:14:24.241Z,56.25
2017-11-13T07:15:24.364Z,61.88
2017-11-13T07:16:24.300Z,67.50
2017-11-13T07:17:24.335Z,78.75
2017-11-13T07:18:24.372Z,84.38
2017-11-13T07:19:24.397Z,90.00
2017-11-13T07:20:24.435Z,90.00
2017-11-13T07:21:24.464Z,90.00
2017-11-13T07:22:24.495Z,95.63
2017-11-13T07:23:24.529Z,95.63
2017-11-13T07:24:24.566Z,95.63
2017-11-13T07:25:24.597Z,101.25
2017-11-13T07:26:24.630Z,101.25
2017-11-13T07:27:24.665Z,106.88
2017-11-13T07:28:24.697Z,106.88
2017-11-13T07:29:24.729Z,106.88
2017-11-13T07:30:24.764Z,112.50
2017-11-13T07:31:24.798Z,112.50
2017-11-13T07:32:24.826Z,112.50
2017-11-13T07:33:24.860Z,112.50
2017-11-13T07:34:24.896Z,118.13
2017-11-13T07:35:24.927Z,118.13
2017-11-13T07:36:24.960Z,118.13
2017-11-13T07:37:24.994Z,118.13
2017-11-13T07:38:25.025Z,123.75
2017-11-13T07:39:25.062Z,123.75
2017-11-13T07:40:25.109Z,123.75
2017-11-13T07:41:25.129Z,123.75
2017-11-13T07:42:25.165Z,129.38
2017-11-13T07:43:25.191Z,129.38
2017-11-13T07:44:25.225Z,129.38
2017-11-13T07:45:25.256Z,135.00
2017-11-13T07:46:25.289Z,135.00
2017-11-13T07:47:25.322Z,135.00
2017-11-13T07:48:25.355Z,140.63
2017-11-13T07:49:25.394Z,140.63
2017-11-13T07:50:25.421Z,146.25
2017-11-13T07:51:25.457Z,146.25
2017-11-13T07:52:25.486Z,151.88
2017-11-13T07:53:25.618Z,185.63
2017-11-13T07:54:25.552Z,185.63
2017-11-13T07:55:25.588Z,213.75
2017-11-13T07:56:25.618Z,202.50
2017-11-13T07:57:25.649Z,168.75
2017-11-13T07:58:25.682Z,191.25
2017-11-13T07:59:25.717Z,168.75
2017-11-13T08:00:25.749Z,180.00
2017-11-13T08:01:25.782Z,168.75
2017-11-13T08:02:25.893Z,168.75
2017-11-13T08:03:25.846Z,185.63
2017-11-13T08:04:25.881Z,157.50
2017-11-13T08:05:25.912Z,163.13
2017-11-13T08:06:25.949Z,163.13
2017-11-13T08:07:25.999Z,168.75
2017-11-13T08:08:26.012Z,191.25
2017-11-13T08:09:26.047Z,180.00
2017-11-13T08:10:26.077Z,191.25
2017-11-13T08:11:26.127Z,196.88
2017-11-13T08:12:26.146Z,202.50
2017-11-13T08:13:26.193Z,191.25
2017-11-13T08:14:26.208Z,202.50
2017-11-13T08:15:26.247Z,196.88
2017-11-13T08:16:26.277Z,208.13
2017-11-13T08:17:26.311Z,213.75
2017-11-13T08:18:26.355Z,208.13
2017-11-13T08:19:26.379Z,213.75
2017-11-13T08:20:26.409Z,225.00
2017-11-13T08:21:26.447Z,191.25
2017-11-13T08:22:26.478Z,196.88
2017-11-13T08:23:26.512Z,202.50
2017-11-13T08:24:26.549Z,208.13
2017-11-13T08:25:26.579Z,191.25
2017-11-13T08:26:26.611Z,196.88
2017-11-13T08:27:26.656Z,180.00
2017-11-13T08:28:26.679Z,196.88
2017-11-13T08:29:26.713Z,168.75
2017-11-13T08:30:26.749Z,168.75
2017-11-13T08:31:26.781Z,174.38
2017-11-13T08:32:26.813Z,174.38
2017-11-13T08:33:26.849Z,174.38
2017-11-13T08:34:26.878Z,174.38
2017-11-13T08:35:26.917Z,185.63
2017-11-13T08:36:26.950Z,202.50
2017-11-13T08:37:26.982Z,157.50
2017-11-13T08:38:27.013Z,174.38
2017-11-13T08:39:27.049Z,202.50
2017-11-13T08:40:27.084Z,202.50
2017-11-13T08:41:27.118Z,185.63
2017-11-13T08:42:27.149Z,196.88
2017-11-13T08:43:27.183Z,180.00
2017-11-13T08:44:27.219Z,196.88
2017-11-13T08:45:27.252Z,185.63
2017-11-13T08:46:27.284Z,196.88
2017-11-13T08:47:27.319Z,208.13
2017-11-13T08:48:27.355Z,213.75
2017-11-13T08:49:27.401Z,202.50
2017-11-13T08:50:27.423Z,196.88
2017-11-13T08:51:27.453Z,163.13
2017-11-13T08:52:27.489Z,151.88
2017-11-13T08:53:27.531Z,168.75
2017-11-13T08:54:27.569Z,185.63
2017-11-13T08:55:27.589Z,196.88
2017-11-13T08:56:27.630Z,202.50
2017-11-13T08:57:27.659Z,225.00
2017-11-13T08:58:27.702Z,236.25
2017-11-13T08:59:27.730Z,219.38
2017-11-13T09:00:27.811Z,236.25
2017-11-13T09:01:27.803Z,236.25
2017-11-13T09:02:27.830Z,219.38
2017-11-13T09:03:27.865Z,230.63
2017-11-13T09:04:27.899Z,225.00
2017-11-13T09:05:27.937Z,230.63
2017-11-13T09:06:27.966Z,230.63
2017-11-13T09:07:28.005Z,253.13
2017-11-13T09:08:28.042Z,230.63
2017-11-13T09:09:28.101Z,236.25
2017-11-13T09:10:28.101Z,253.13
2017-11-13T09:11:28.136Z,241.88
2017-11-13T09:12:28.171Z,225.00
2017-11-13T09:13:28.202Z,236.25
2017-11-13T09:14:28.241Z,219.38
2017-11-13T09:15:28.272Z,230.63
2017-11-13T09:16:28.304Z,219.38
2017-11-13T09:17:28.339Z,202.50
2017-11-13T09:18:28.372Z,196.88
2017-11-13T09:19:28.409Z,174.38
2017-11-13T09:20:28.442Z,185.63
2017-11-13T09:21:28.482Z,208.13
2017-11-13T09:22:28.512Z,230.63
2017-11-13T09:23:28.544Z,219.38
2017-11-13T09:24:28.577Z,236.25
2017-11-13T09:25:28.611Z,241.88
2017-11-13T09:26:28.645Z,225.00
2017-11-13T09:27:28.682Z,241.88
2017-11-13T09:28:28.713Z,258.75
2017-11-13T09:29:28.747Z,253.13
2017-11-13T09:30:28.783Z,247.50
2017-11-13T09:31:28.816Z,258.75
2017-11-13T09:32:28.854Z,247.50
2017-11-13T09:33:28.884Z,270.00
2017-11-13T09:34:28.915Z,286.88
2017-11-13T09:35:28.953Z,264.38
2017-11-13T09:36:28.986Z,275.63
2017-11-13T09:37:29.020Z,247.50
2017-11-13T09:38:29.054Z,253.13
2017-11-13T09:39:29.091Z,241.88
2017-11-13T09:40:29.127Z,247.50
2017-11-13T09:41:29.163Z,241.88
2017-11-13T09:42:29.192Z,258.75
2017-11-13T09:43:29.225Z,309.38
2017-11-13T09:44:29.264Z,270.00
2017-11-13T09:45:29.294Z,281.25
2017-11-13T09:46:29.327Z,298.13
2017-11-13T09:47:29.363Z,286.88
2017-11-13T09:48:29.398Z,270.00
2017-11-13T09:49:29.434Z,270.00
2017-11-13T09:50:29.475Z,292.50
2017-11-13T09:51:29.505Z,292.50
2017-11-13T09:52:29.535Z,298.13
2017-11-13T09:53:29.571Z,281.25
2017-11-13T09:54:29.676Z,298.13
2017-11-13T09:55:29.639Z,286.88
2017-11-13T09:56:29.673Z,270.00
2017-11-13T09:57:29.708Z,253.13
2017-11-13T09:58:29.742Z,281.25
2017-11-13T09:59:29.777Z,298.13
2017-11-13T10:00:29.813Z,292.50
2017-11-13T10:01:29.845Z,331.88
2017-11-13T10:02:29.884Z,275.63
2017-11-13T10:03:29.965Z,286.88
2017-11-13T10:04:29.953Z,281.25
2017-11-13T10:05:29.983Z,303.75
2017-11-13T10:06:30.018Z,326.25
2017-11-13T10:07:30.057Z,343.13
2017-11-13T10:08:30.095Z,303.75
2017-11-13T10:09:30.126Z,281.25
2017-11-13T10:10:30.159Z,298.13
2017-11-13T10:11:30.193Z,320.63
2017-11-13T10:12:30.335Z,326.25
2017-11-13T10:13:30.265Z,331.88
2017-11-13T10:14:30.306Z,348.75
2017-11-13T10:15:30.335Z,315.00
2017-11-13T10:16:30.370Z,360.00
2017-11-13T10:17:30.405Z,354.38
2017-11-13T10:18:30.440Z,337.50
2017-11-13T10:19:30.474Z,320.63
2017-11-13T10:20:30.524Z,331.88
2017-11-13T10:21:30.542Z,354.38
2017-11-13T10:22:30.585Z,343.13
2017-11-13T10:23:30.615Z,365.63
2017-11-13T10:24:30.648Z,348.75
2017-11-13T10:25:30.684Z,292.50
2017-11-13T10:26:30.725Z,275.63
2017-11-13T10:27:30.754Z,309.38
2017-11-13T10:28:30.788Z,326.25
2017-11-13T10:29:30.834Z,292.50
2017-11-13T10:30:30.856Z,281.25
2017-11-13T10:31:30.896Z,292.50
2017-11-13T10:32:30.927Z,320.63
2017-11-13T10:33:30.976Z,343.13
2017-11-13T10:34:30.999Z,354.38
2017-11-13T10:35:31.034Z,376.88
2017-11-13T10:36:31.068Z,410.63
2017-11-13T10:37:31.101Z,405.00
2017-11-13T10:38:31.137Z,343.13
2017-11-13T10:39:31.176Z,343.13
2017-11-13T10:40:31.207Z,388.13
2017-11-13T10:41:31.260Z,376.88
2017-11-13T10:42:31.276Z,343.13
2017-11-13T10:43:31.316Z,309.38
2017-11-13T10:44:31.351Z,309.38
2017-11-13T10:45:31.385Z,343.13
2017-11-13T10:46:31.418Z,309.38
2017-11-13T10:47:31.457Z,309.38
2017-11-13T10:48:31.489Z,303.75
2017-11-13T10:49:31.523Z,275.63
2017-11-13T10:50:31.567Z,292.50
2017-11-13T10:51:31.596Z,320.63
2017-11-13T10:52:31.629Z,326.25
2017-11-13T10:53:31.667Z,382.50
2017-11-13T10:54:31.699Z,393.75
2017-11-13T10:55:31.737Z,365.63
2017-11-13T10:56:31.802Z,399.38
2017-11-13T10:57:31.807Z,393.75
2017-11-13T10:58:31.839Z,433.13
2017-11-13T10:59:31.929Z,438.75
2017-11-13T11:00:31.911Z,416.25
2017-11-13T11:01:31.946Z,450.00
2017-11-13T11:02:31.982Z,489.38
2017-11-13T11:03:32.032Z,466.88
2017-11-13T11:04:32.052Z,427.50
2017-11-13T11:05:32.095Z,455.63
2017-11-13T11:06:32.129Z,450.00
2017-11-13T11:07:32.169Z,461.25
2017-11-13T11:08:32.208Z,478.13
2017-11-13T11:09:32.231Z,466.88
2017-11-13T11:10:32.266Z,450.00
2017-11-13T11:11:32.305Z,450.00
2017-11-13T11:12:32.338Z,427.50
2017-11-13T11:13:32.378Z,438.75
2017-11-13T11:14:32.410Z,444.38
2017-11-13T11:15:32.448Z,433.13
2017-11-13T11:16:32.480Z,393.75
2017-11-13T11:17:32.518Z,438.75
2017-11-13T11:18:32.552Z,472.50
2017-11-13T11:19:32.588Z,421.88
2017-11-13T11:20:32.628Z,399.38
2017-11-13T11:21:32.661Z,337.50
2017-11-13T11:22:32.700Z,309.38
2017-11-13T11:23:32.731Z,309.38
2017-11-13T11:24:32.772Z,343.13
2017-11-13T11:25:32.803Z,354.38
2017-11-13T11:26:32.840Z,360.00
2017-11-13T11:27:32.874Z,365.63
2017-11-13T11:28:32.911Z,303.75
2017-11-13T11:29:32.959Z,298.13
2017-11-13T11:30:32.982Z,315.00
2017-11-13T11:31:33.018Z,354.38
2017-11-13T11:32:33.053Z,354.38
2017-11-13T11:33:33.088Z,348.75
2017-11-13T11:34:33.123Z,337.50
2017-11-13T11:35:33.161Z,326.25
2017-11-13T11:36:33.200Z,326.25
2017-11-13T11:37:33.229Z,275.63
2017-11-13T11:38:33.274Z,275.63
2017-11-13T11:39:33.305Z,309.38
2017-11-13T11:40:33.341Z,331.88
2017-11-13T11:41:33.374Z,365.63
2017-11-13T11:42:33.408Z,388.13
2017-11-13T11:43:33.445Z,427.50
2017-11-13T11:44:33.537Z,410.63
2017-11-13T11:45:33.519Z,382.50
2017-11-13T11:46:33.550Z,376.88
2017-11-13T11:47:33.584Z,354.38
2017-11-13T11:48:33.620Z,360.00
2017-11-13T11:49:33.654Z,360.00
2017-11-13T11:50:33.691Z,371.25
2017-11-13T11:51:33.724Z,371.25
2017-11-13T11:52:33.776Z,360.00
2017-11-13T11:53:33.810Z,354.38
2017-11-13T11:54:33.830Z,365.63
2017-11-13T11:55:33.872Z,354.38
2017-11-13T11:56:33.902Z,343.13
2017-11-13T11:57:33.952Z,388.13
2017-11-13T11:58:33.973Z,371.25
2017-11-13T11:59:34.023Z,365.63
2017-11-13T12:00:34.046Z,405.00
2017-11-13T12:01:34.087Z,382.50
2017-11-13T12:02:34.127Z,371.25
2017-11-13T12:03:34.152Z,388.13
2017-11-13T12:04:34.186Z,376.88
2017-11-13T12:05:34.221Z,371.25
2017-11-13T12:06:34.255Z,399.38
2017-11-13T12:07:34.290Z,399.38
2017-11-13T12:08:34.327Z,410.63
2017-11-13T12:09:34.361Z,421.88
2017-11-13T12:10:34.397Z,393.75
2017-11-13T12:11:34.432Z,376.88
2017-11-13T12:12:34.472Z,382.50
2017-11-13T12:13:34.512Z,360.00
2017-11-13T12:14:34.541Z,399.38
2017-11-13T12:15:34.575Z,399.38
2017-11-13T12:16:34.612Z,433.13
2017-11-13T12:17:34.644Z,416.25
2017-11-13T12:18:34.682Z,393.75
2017-11-13T12:19:34.717Z,393.75
2017-11-13T12:20:34.768Z,399.38
2017-11-13T12:21:34.791Z,348.75
2017-11-13T12:22:34.824Z,365.63
2017-11-13T12:23:34.861Z,343.13
2017-11-13T12:24:34.908Z,354.38
2017-11-13T12:25:34.964Z,337.50
2017-11-13T12:26:34.972Z,371.25
2017-11-13T12:27:35.002Z,399.38
2017-11-13T12:28:35.041Z,371.25
2017-11-13T12:29:35.072Z,343.13
2017-11-13T12:30:35.113Z,365.63
2017-11-13T12:31:35.152Z,405.00
2017-11-13T12:32:35.184Z,393.75
2017-11-13T12:33:35.218Z,376.88
2017-11-13T12:34:35.253Z,382.50
2017-11-13T12:35:35.288Z,393.75
2017-11-13T12:36:35.327Z,405.00
2017-11-13T12:37:35.363Z,371.25
2017-11-13T12:38:35.399Z,382.50
2017-11-13T12:39:35.433Z,416.25
2017-11-13T12:40:35.469Z,416.25
2017-11-13T12:41:35.506Z,393.75
2017-11-13T12:42:35.545Z,399.38
2017-11-13T12:43:35.584Z,416.25
2017-11-13T12:44:35.616Z,388.13
2017-11-13T12:45:35.653Z,371.25
2017-11-13T12:46:35.684Z,348.75
2017-11-13T12:47:35.751Z,360.00
2017-11-13T12:48:35.757Z,343.13
2017-11-13T12:49:35.794Z,343.13
2017-11-13T12:50:35.829Z,326.25
2017-11-13T12:51:35.863Z,326.25
2017-11-13T12:52:35.905Z,337.50
2017-11-13T12:53:35.943Z,365.63
2017-11-13T12:54:35.980Z,388.13
2017-11-13T12:55:36.018Z,388.13
2017-11-13T12:56:36.057Z,388.13